Red Deer Regional Airport
CYQF : now visible

Airfield :











YOU CAN JOIN US ON...

 
LOGIN :

Register | Disclaimer

   EN    FR    IT 

 









Legend :    VFR   Marginal VFR   IFR   Intensive IFR   Very Intensive IFR
Visi :
Ceiling :
>= 8 km
>= 3000ft
5 to 8 km
1000 to 3000 ft
1500m to 5 km
500 to 1000 ft
800 to 1500m
200 to 500 ft
< 800m
< 200 ft
Symbols :   Thunderstorms  Fog  Heavy snow  Heavy precipitations  Wind > 20 kt







- Airport Elevation : 2968 ft
- IATA code : YQF


CYQF - Red Deer Regional

CURRENT METAR :
  • 160600Z 26007KT 15SM BKN130 12/10 A2963 RMK AC6 SLP041 DENSITY ALT 3700FT

EXPIRED METARs :
  • 160500Z VRB03KT 15SM FEW120 BKN250 11/09 A2961 RMK AC2CI3 SLP039 DENSITY ALT 3600FT
  • 160400Z 35005KT 15SM SCT120 BKN270 13/10 A2961 RMK AC4CI3 SLP035 DENSITY ALT 3800FT

TAF TAF CYQF
Valid from the 16 at 06:00 until the 16 at 18:00 UTC


160538Z 1606/1618 VRB03KT P6SM FEW120 BKN250
FM161100 32005KT P6SM SCT006
TEMPO 1611/1615 BKN006
PROB30 1611/1615 1SM BR
FM161500 32008KT P6SM SCT012
TEMPO 1615/1618 BKN012 RMK NXT FCST BY 161200Z
No reported NOTAMs for that airfield.



MET'MAP, your aeronautical weather chart ! - Copyright ORBIFLY December 2007 - Disclaimer

ORBIFLY MET'MAP TEAM :

Programming & Development : Alexandra Zaïnal
Concept & Development : Baudouin d'Aumeries
Co-Development & Prog : Marc-Olivier Méhu
Technical & hardware support : Manuel Goepfert

Contact : metmap@orbifly.com




SOURCES & CREDITS :

   NOAA       Earth
Advisory